sensor_id;sensor_type;location;lat;lon;timestamp;P1;durP1;ratioP1;P2;durP2;ratioP2
78774;SDS011;68119;43.398;3.676;2023-03-13T00:01:00;3.15;;;1.30;;
78774;SDS011;68119;43.398;3.676;2023-03-13T00:03:29;1.50;;;1.15;;
78774;SDS011;68119;43.398;3.676;2023-03-13T00:05:57;1.50;;;1.00;;
78774;SDS011;68119;43.398;3.676;2023-03-13T00:08:24;2.05;;;1.38;;
78774;SDS011;68119;43.398;3.676;2023-03-13T00:10:53;1.63;;;1.10;;
78774;SDS011;68119;43.398;3.676;2023-03-13T00:13:19;2.15;;;1.40;;
78774;SDS011;68119;43.398;3.676;2023-03-13T00:15:58;2.20;;;1.50;;
78774;SDS011;68119;43.398;3.676;2023-03-13T00:18:27;5.72;;;3.63;;
78774;SDS011;68119;43.398;3.676;2023-03-13T00:21:02;5.20;;;2.78;;
78774;SDS011;68119;43.398;3.676;2023-03-13T00:23:28;4.43;;;2.30;;
78774;SDS011;68119;43.398;3.676;2023-03-13T00:25:57;2.67;;;1.80;;
78774;SDS011;68119;43.398;3.676;2023-03-13T00:28:27;2.83;;;1.33;;
78774;SDS011;68119;43.398;3.676;2023-03-13T00:31:13;3.05;;;1.70;;
78774;SDS011;68119;43.398;3.676;2023-03-13T00:33:42;4.07;;;1.92;;
78774;SDS011;68119;43.398;3.676;2023-03-13T00:36:14;3.13;;;1.77;;
78774;SDS011;68119;43.398;3.676;2023-03-13T00:38:43;4.72;;;1.95;;
78774;SDS011;68119;43.398;3.676;2023-03-13T00:41:16;3.78;;;1.90;;
78774;SDS011;68119;43.398;3.676;2023-03-13T00:43:45;2.90;;;1.70;;
78774;SDS011;68119;43.398;3.676;2023-03-13T00:46:14;2.50;;;1.58;;
78774;SDS011;68119;43.398;3.676;2023-03-13T00:48:40;4.22;;;1.50;;
78774;SDS011;68119;43.398;3.676;2023-03-13T00:51:08;2.95;;;1.60;;
78774;SDS011;68119;43.398;3.676;2023-03-13T00:53:37;2.75;;;1.60;;
78774;SDS011;68119;43.398;3.676;2023-03-13T00:56:06;1.98;;;1.48;;
78774;SDS011;68119;43.398;3.676;2023-03-13T00:58:36;3.53;;;1.50;;
78774;SDS011;68119;43.398;3.676;2023-03-13T01:03:35;2.92;;;1.60;;
78774;SDS011;68119;43.398;3.676;2023-03-13T01:06:04;3.58;;;1.73;;
78774;SDS011;68119;43.398;3.676;2023-03-13T01:08:36;1.88;;;1.67;;
78774;SDS011;68119;43.398;3.676;2023-03-13T01:11:03;2.30;;;1.80;;
78774;SDS011;68119;43.398;3.676;2023-03-13T01:13:33;4.68;;;1.80;;
78774;SDS011;68119;43.398;3.676;2023-03-13T01:18:36;3.33;;;2.08;;
78774;SDS011;68119;43.398;3.676;2023-03-13T01:21:05;2.45;;;1.73;;
78774;SDS011;68119;43.398;3.676;2023-03-13T01:23:31;3.20;;;2.13;;
78774;SDS011;68119;43.398;3.676;2023-03-13T01:26:00;3.63;;;2.35;;
78774;SDS011;68119;43.398;3.676;2023-03-13T01:28:29;3.53;;;2.03;;
78774;SDS011;68119;43.398;3.676;2023-03-13T01:31:00;4.75;;;2.45;;
78774;SDS011;68119;43.398;3.676;2023-03-13T01:33:29;4.43;;;2.20;;
78774;SDS011;68119;43.398;3.676;2023-03-13T01:36:07;4.38;;;2.55;;
78774;SDS011;68119;43.398;3.676;2023-03-13T01:38:36;5.20;;;2.20;;
78774;SDS011;68119;43.398;3.676;2023-03-13T01:41:03;7.88;;;2.58;;
78774;SDS011;68119;43.398;3.676;2023-03-13T01:43:32;7.13;;;2.17;;
78774;SDS011;68119;43.398;3.676;2023-03-13T01:51:12;5.15;;;1.90;;
78774;SDS011;68119;43.398;3.676;2023-03-13T01:53:40;6.70;;;2.10;;
78774;SDS011;68119;43.398;3.676;2023-03-13T01:56:07;5.75;;;2.10;;
78774;SDS011;68119;43.398;3.676;2023-03-13T01:58:36;4.75;;;1.80;;
78774;SDS011;68119;43.398;3.676;2023-03-13T02:01:05;6.05;;;1.85;;
78774;SDS011;68119;43.398;3.676;2023-03-13T02:03:33;4.78;;;2.00;;
78774;SDS011;68119;43.398;3.676;2023-03-13T02:06:03;5.38;;;2.13;;
78774;SDS011;68119;43.398;3.676;2023-03-13T02:08:43;6.90;;;2.08;;
78774;SDS011;68119;43.398;3.676;2023-03-13T02:11:21;5.65;;;2.33;;
78774;SDS011;68119;43.398;3.676;2023-03-13T02:13:52;5.57;;;2.30;;
78774;SDS011;68119;43.398;3.676;2023-03-13T02:16:18;6.35;;;2.70;;
78774;SDS011;68119;43.398;3.676;2023-03-13T02:18:48;6.95;;;2.47;;
78774;SDS011;68119;43.398;3.676;2023-03-13T02:21:25;5.13;;;1.88;;
78774;SDS011;68119;43.398;3.676;2023-03-13T02:23:57;6.40;;;2.40;;
78774;SDS011;68119;43.398;3.676;2023-03-13T02:26:24;5.85;;;2.25;;
78774;SDS011;68119;43.398;3.676;2023-03-13T02:28:53;4.30;;;2.15;;
78774;SDS011;68119;43.398;3.676;2023-03-13T02:31:21;6.10;;;2.35;;
78774;SDS011;68119;43.398;3.676;2023-03-13T02:33:51;5.25;;;1.92;;
78774;SDS011;68119;43.398;3.676;2023-03-13T02:36:20;6.65;;;2.33;;
78774;SDS011;68119;43.398;3.676;2023-03-13T02:38:57;6.07;;;2.30;;
78774;SDS011;68119;43.398;3.676;2023-03-13T02:41:25;6.40;;;2.58;;
78774;SDS011;68119;43.398;3.676;2023-03-13T02:43:54;7.70;;;2.50;;
78774;SDS011;68119;43.398;3.676;2023-03-13T02:46:23;7.55;;;2.70;;
78774;SDS011;68119;43.398;3.676;2023-03-13T02:48:53;10.18;;;3.10;;
78774;SDS011;68119;43.398;3.676;2023-03-13T02:51:31;7.97;;;2.83;;
78774;SDS011;68119;43.398;3.676;2023-03-13T02:53:59;7.18;;;2.63;;
78774;SDS011;68119;43.398;3.676;2023-03-13T02:56:26;6.03;;;2.47;;
78774;SDS011;68119;43.398;3.676;2023-03-13T02:58:54;4.90;;;2.47;;
78774;SDS011;68119;43.398;3.676;2023-03-13T03:01:23;5.25;;;2.20;;
78774;SDS011;68119;43.398;3.676;2023-03-13T03:03:54;7.63;;;2.60;;
78774;SDS011;68119;43.398;3.676;2023-03-13T03:06:20;5.47;;;2.20;;
78774;SDS011;68119;43.398;3.676;2023-03-13T03:08:49;6.78;;;2.10;;
78774;SDS011;68119;43.398;3.676;2023-03-13T03:11:20;5.82;;;2.22;;
78774;SDS011;68119;43.398;3.676;2023-03-13T03:13:48;5.55;;;2.08;;
78774;SDS011;68119;43.398;3.676;2023-03-13T03:16:14;9.98;;;2.40;;
78774;SDS011;68119;43.398;3.676;2023-03-13T03:18:48;8.88;;;2.10;;
78774;SDS011;68119;43.398;3.676;2023-03-13T03:21:16;5.40;;;2.20;;
78774;SDS011;68119;43.398;3.676;2023-03-13T03:23:45;7.10;;;2.22;;
78774;SDS011;68119;43.398;3.676;2023-03-13T03:26:11;5.28;;;2.10;;
78774;SDS011;68119;43.398;3.676;2023-03-13T03:28:37;10.13;;;2.15;;
78774;SDS011;68119;43.398;3.676;2023-03-13T03:31:09;5.18;;;2.10;;
78774;SDS011;68119;43.398;3.676;2023-03-13T03:33:40;7.15;;;2.33;;
78774;SDS011;68119;43.398;3.676;2023-03-13T03:36:19;4.43;;;2.05;;
78774;SDS011;68119;43.398;3.676;2023-03-13T03:38:48;4.97;;;1.95;;
78774;SDS011;68119;43.398;3.676;2023-03-13T03:41:17;4.88;;;2.08;;
78774;SDS011;68119;43.398;3.676;2023-03-13T03:43:48;5.97;;;2.42;;
78774;SDS011;68119;43.398;3.676;2023-03-13T03:46:19;5.03;;;2.10;;
78774;SDS011;68119;43.398;3.676;2023-03-13T03:48:48;5.47;;;2.08;;
78774;SDS011;68119;43.398;3.676;2023-03-13T03:51:19;5.65;;;1.95;;
78774;SDS011;68119;43.398;3.676;2023-03-13T03:53:45;6.70;;;1.90;;
78774;SDS011;68119;43.398;3.676;2023-03-13T03:56:13;6.47;;;1.90;;
78774;SDS011;68119;43.398;3.676;2023-03-13T03:58:44;6.22;;;1.90;;
78774;SDS011;68119;43.398;3.676;2023-03-13T04:01:15;5.10;;;1.80;;
78774;SDS011;68119;43.398;3.676;2023-03-13T04:03:46;10.82;;;2.33;;
78774;SDS011;68119;43.398;3.676;2023-03-13T04:06:12;4.30;;;1.90;;
78774;SDS011;68119;43.398;3.676;2023-03-13T04:08:41;4.93;;;1.90;;
78774;SDS011;68119;43.398;3.676;2023-03-13T04:11:12;5.75;;;2.47;;
78774;SDS011;68119;43.398;3.676;2023-03-13T04:13:41;6.57;;;1.98;;
78774;SDS011;68119;43.398;3.676;2023-03-13T04:16:07;5.00;;;2.35;;
78774;SDS011;68119;43.398;3.676;2023-03-13T04:18:36;8.55;;;2.20;;
78774;SDS011;68119;43.398;3.676;2023-03-13T04:21:05;4.97;;;2.15;;
78774;SDS011;68119;43.398;3.676;2023-03-13T04:23:34;6.18;;;2.35;;
78774;SDS011;68119;43.398;3.676;2023-03-13T04:26:02;7.45;;;2.38;;
78774;SDS011;68119;43.398;3.676;2023-03-13T04:28:28;7.47;;;2.30;;
78774;SDS011;68119;43.398;3.676;2023-03-13T04:30:57;7.40;;;2.30;;
78774;SDS011;68119;43.398;3.676;2023-03-13T04:33:26;7.30;;;2.20;;
78774;SDS011;68119;43.398;3.676;2023-03-13T04:35:52;7.22;;;2.28;;
78774;SDS011;68119;43.398;3.676;2023-03-13T04:38:18;6.68;;;2.45;;
78774;SDS011;68119;43.398;3.676;2023-03-13T04:40:49;7.75;;;2.70;;
78774;SDS011;68119;43.398;3.676;2023-03-13T04:43:15;5.78;;;2.42;;
78774;SDS011;68119;43.398;3.676;2023-03-13T04:45:44;10.90;;;2.58;;
78774;SDS011;68119;43.398;3.676;2023-03-13T04:48:14;6.68;;;2.40;;
78774;SDS011;68119;43.398;3.676;2023-03-13T04:50:46;7.78;;;2.85;;
78774;SDS011;68119;43.398;3.676;2023-03-13T04:53:12;6.35;;;2.47;;
78774;SDS011;68119;43.398;3.676;2023-03-13T04:55:41;7.78;;;2.70;;
78774;SDS011;68119;43.398;3.676;2023-03-13T04:58:07;7.15;;;2.75;;
78774;SDS011;68119;43.398;3.676;2023-03-13T05:00:38;6.90;;;2.70;;
78774;SDS011;68119;43.398;3.676;2023-03-13T05:03:06;7.25;;;2.88;;
78774;SDS011;68119;43.398;3.676;2023-03-13T05:05:33;7.20;;;3.03;;
78774;SDS011;68119;43.398;3.676;2023-03-13T05:08:01;8.35;;;2.58;;
78774;SDS011;68119;43.398;3.676;2023-03-13T05:10:29;8.50;;;2.58;;
78774;SDS011;68119;43.398;3.676;2023-03-13T05:12:58;5.78;;;2.40;;
78774;SDS011;68119;43.398;3.676;2023-03-13T05:15:29;6.57;;;2.50;;
78774;SDS011;68119;43.398;3.676;2023-03-13T05:17:55;5.60;;;2.28;;
78774;SDS011;68119;43.398;3.676;2023-03-13T05:20:32;5.63;;;2.42;;
78774;SDS011;68119;43.398;3.676;2023-03-13T05:23:03;5.50;;;2.20;;
78774;SDS011;68119;43.398;3.676;2023-03-13T05:25:29;5.78;;;2.17;;
78774;SDS011;68119;43.398;3.676;2023-03-13T05:27:55;6.03;;;2.30;;
78774;SDS011;68119;43.398;3.676;2023-03-13T05:30:23;4.47;;;2.20;;
78774;SDS011;68119;43.398;3.676;2023-03-13T05:32:57;3.95;;;2.03;;
78774;SDS011;68119;43.398;3.676;2023-03-13T05:35:23;4.53;;;2.00;;
78774;SDS011;68119;43.398;3.676;2023-03-13T05:37:54;3.40;;;1.77;;
78774;SDS011;68119;43.398;3.676;2023-03-13T05:40:23;3.92;;;1.98;;
78774;SDS011;68119;43.398;3.676;2023-03-13T05:42:52;4.32;;;1.95;;
78774;SDS011;68119;43.398;3.676;2023-03-13T05:45:23;4.40;;;1.80;;
78774;SDS011;68119;43.398;3.676;2023-03-13T05:47:55;3.33;;;2.00;;
78774;SDS011;68119;43.398;3.676;2023-03-13T05:50:25;4.50;;;2.20;;
78774;SDS011;68119;43.398;3.676;2023-03-13T05:52:53;6.28;;;2.20;;
78774;SDS011;68119;43.398;3.676;2023-03-13T05:55:22;5.22;;;2.10;;
78774;SDS011;68119;43.398;3.676;2023-03-13T05:57:51;5.25;;;2.10;;
78774;SDS011;68119;43.398;3.676;2023-03-13T06:00:20;6.32;;;2.10;;
78774;SDS011;68119;43.398;3.676;2023-03-13T06:02:51;5.20;;;2.10;;
78774;SDS011;68119;43.398;3.676;2023-03-13T06:05:17;6.13;;;2.38;;
78774;SDS011;68119;43.398;3.676;2023-03-13T06:07:43;5.78;;;2.20;;
78774;SDS011;68119;43.398;3.676;2023-03-13T06:10:10;4.95;;;2.30;;
78774;SDS011;68119;43.398;3.676;2023-03-13T06:12:39;8.90;;;2.30;;
78774;SDS011;68119;43.398;3.676;2023-03-13T06:15:07;5.45;;;2.30;;
78774;SDS011;68119;43.398;3.676;2023-03-13T06:17:41;6.20;;;2.58;;
78774;SDS011;68119;43.398;3.676;2023-03-13T06:20:10;6.22;;;2.83;;
78774;SDS011;68119;43.398;3.676;2023-03-13T06:22:36;3.75;;;2.60;;
78774;SDS011;68119;43.398;3.676;2023-03-13T06:25:07;6.00;;;2.60;;
78774;SDS011;68119;43.398;3.676;2023-03-13T06:27:33;6.80;;;3.00;;
78774;SDS011;68119;43.398;3.676;2023-03-13T06:30:02;7.93;;;3.28;;
78774;SDS011;68119;43.398;3.676;2023-03-13T06:32:28;6.07;;;3.28;;
78774;SDS011;68119;43.398;3.676;2023-03-13T06:34:57;8.75;;;3.42;;
78774;SDS011;68119;43.398;3.676;2023-03-13T06:37:28;9.95;;;3.60;;
78774;SDS011;68119;43.398;3.676;2023-03-13T06:40:01;8.70;;;3.70;;
78774;SDS011;68119;43.398;3.676;2023-03-13T06:44:56;7.65;;;3.90;;
78774;SDS011;68119;43.398;3.676;2023-03-13T06:47:22;8.10;;;3.97;;
78774;SDS011;68119;43.398;3.676;2023-03-13T06:49:51;9.05;;;4.20;;
78774;SDS011;68119;43.398;3.676;2023-03-13T06:52:22;9.02;;;3.97;;
78774;SDS011;68119;43.398;3.676;2023-03-13T06:54:53;11.88;;;4.15;;
78774;SDS011;68119;43.398;3.676;2023-03-13T06:59:53;7.38;;;3.70;;
78774;SDS011;68119;43.398;3.676;2023-03-13T07:02:24;10.27;;;3.97;;
78774;SDS011;68119;43.398;3.676;2023-03-13T07:04:56;8.20;;;3.60;;
78774;SDS011;68119;43.398;3.676;2023-03-13T07:07:22;6.18;;;3.38;;
78774;SDS011;68119;43.398;3.676;2023-03-13T07:09:52;10.20;;;3.72;;
78774;SDS011;68119;43.398;3.676;2023-03-13T07:12:20;9.45;;;3.63;;
78774;SDS011;68119;43.398;3.676;2023-03-13T07:14:46;10.25;;;3.53;;
78774;SDS011;68119;43.398;3.676;2023-03-13T07:17:15;9.88;;;3.72;;
78774;SDS011;68119;43.398;3.676;2023-03-13T07:19:44;8.85;;;3.65;;
78774;SDS011;68119;43.398;3.676;2023-03-13T07:22:10;12.60;;;3.65;;
78774;SDS011;68119;43.398;3.676;2023-03-13T07:24:39;12.90;;;4.00;;
78774;SDS011;68119;43.398;3.676;2023-03-13T07:27:05;14.00;;;4.15;;
78774;SDS011;68119;43.398;3.676;2023-03-13T07:29:36;12.90;;;3.75;;
78774;SDS011;68119;43.398;3.676;2023-03-13T07:32:02;11.02;;;3.92;;
78774;SDS011;68119;43.398;3.676;2023-03-13T07:34:31;11.23;;;3.90;;
78774;SDS011;68119;43.398;3.676;2023-03-13T07:37:02;7.25;;;3.35;;
78774;SDS011;68119;43.398;3.676;2023-03-13T07:39:31;8.25;;;3.70;;
78774;SDS011;68119;43.398;3.676;2023-03-13T07:42:00;8.57;;;3.67;;
78774;SDS011;68119;43.398;3.676;2023-03-13T07:44:26;8.70;;;3.65;;
78774;SDS011;68119;43.398;3.676;2023-03-13T07:46:54;9.02;;;3.60;;
78774;SDS011;68119;43.398;3.676;2023-03-13T07:49:23;13.95;;;4.13;;
78774;SDS011;68119;43.398;3.676;2023-03-13T07:51:52;11.93;;;4.15;;
78774;SDS011;68119;43.398;3.676;2023-03-13T07:54:18;10.50;;;4.47;;
78774;SDS011;68119;43.398;3.676;2023-03-13T07:56:44;9.30;;;5.05;;
78774;SDS011;68119;43.398;3.676;2023-03-13T07:59:15;12.70;;;5.28;;
78774;SDS011;68119;43.398;3.676;2023-03-13T08:01:46;13.15;;;4.90;;
78774;SDS011;68119;43.398;3.676;2023-03-13T08:04:12;9.10;;;4.18;;
78774;SDS011;68119;43.398;3.676;2023-03-13T08:06:38;9.20;;;4.25;;
78774;SDS011;68119;43.398;3.676;2023-03-13T08:09:08;9.00;;;4.28;;
78774;SDS011;68119;43.398;3.676;2023-03-13T08:11:34;11.07;;;4.30;;
78774;SDS011;68119;43.398;3.676;2023-03-13T08:14:00;11.07;;;4.15;;
78774;SDS011;68119;43.398;3.676;2023-03-13T08:16:27;11.15;;;4.30;;
78774;SDS011;68119;43.398;3.676;2023-03-13T08:18:54;17.17;;;4.50;;
78774;SDS011;68119;43.398;3.676;2023-03-13T08:21:22;16.38;;;4.30;;
78774;SDS011;68119;43.398;3.676;2023-03-13T08:23:51;12.77;;;4.43;;
78774;SDS011;68119;43.398;3.676;2023-03-13T08:26:18;12.85;;;4.50;;
78774;SDS011;68119;43.398;3.676;2023-03-13T08:28:51;15.10;;;4.97;;
78774;SDS011;68119;43.398;3.676;2023-03-13T08:31:21;12.50;;;5.00;;
78774;SDS011;68119;43.398;3.676;2023-03-13T08:33:48;9.00;;;4.35;;
78774;SDS011;68119;43.398;3.676;2023-03-13T08:36:22;18.02;;;5.13;;
78774;SDS011;68119;43.398;3.676;2023-03-13T08:38:49;12.43;;;4.60;;
78774;SDS011;68119;43.398;3.676;2023-03-13T08:41:16;16.38;;;5.22;;
78774;SDS011;68119;43.398;3.676;2023-03-13T08:43:43;15.02;;;5.20;;
78774;SDS011;68119;43.398;3.676;2023-03-13T08:46:09;15.95;;;5.10;;
78774;SDS011;68119;43.398;3.676;2023-03-13T08:48:35;17.10;;;5.32;;
78774;SDS011;68119;43.398;3.676;2023-03-13T08:53:27;19.83;;;5.70;;
78774;SDS011;68119;43.398;3.676;2023-03-13T08:55:56;18.33;;;5.90;;
78774;SDS011;68119;43.398;3.676;2023-03-13T08:58:27;26.67;;;6.60;;
78774;SDS011;68119;43.398;3.676;2023-03-13T09:00:53;15.43;;;5.72;;
78774;SDS011;68119;43.398;3.676;2023-03-13T09:03:22;21.85;;;5.70;;
78774;SDS011;68119;43.398;3.676;2023-03-13T09:05:48;20.98;;;5.97;;
78774;SDS011;68119;43.398;3.676;2023-03-13T09:08:14;15.43;;;5.35;;
78774;SDS011;68119;43.398;3.676;2023-03-13T09:10:40;23.48;;;6.10;;
78774;SDS011;68119;43.398;3.676;2023-03-13T09:13:06;22.85;;;6.70;;
78774;SDS011;68119;43.398;3.676;2023-03-13T09:15:32;23.40;;;6.40;;
78774;SDS011;68119;43.398;3.676;2023-03-13T09:17:58;16.50;;;5.70;;
78774;SDS011;68119;43.398;3.676;2023-03-13T09:20:25;19.55;;;5.55;;
78774;SDS011;68119;43.398;3.676;2023-03-13T09:22:51;16.77;;;5.20;;
78774;SDS011;68119;43.398;3.676;2023-03-13T09:25:19;18.25;;;5.80;;
78774;SDS011;68119;43.398;3.676;2023-03-13T09:27:48;20.80;;;5.97;;
78774;SDS011;68119;43.398;3.676;2023-03-13T09:30:14;16.92;;;6.40;;
78774;SDS011;68119;43.398;3.676;2023-03-13T09:32:45;20.52;;;6.22;;
78774;SDS011;68119;43.398;3.676;2023-03-13T09:35:14;23.05;;;6.45;;
78774;SDS011;68119;43.398;3.676;2023-03-13T09:37:40;20.67;;;6.50;;
78774;SDS011;68119;43.398;3.676;2023-03-13T09:40:13;22.10;;;6.10;;
78774;SDS011;68119;43.398;3.676;2023-03-13T09:42:43;20.23;;;6.83;;
78774;SDS011;68119;43.398;3.676;2023-03-13T09:45:12;27.67;;;6.57;;
78774;SDS011;68119;43.398;3.676;2023-03-13T09:47:47;26.35;;;6.82;;
78774;SDS011;68119;43.398;3.676;2023-03-13T09:50:19;25.50;;;7.32;;
78774;SDS011;68119;43.398;3.676;2023-03-13T09:52:46;31.23;;;6.32;;
78774;SDS011;68119;43.398;3.676;2023-03-13T09:55:18;27.52;;;7.03;;
78774;SDS011;68119;43.398;3.676;2023-03-13T10:03:32;24.60;;;6.10;;
78774;SDS011;68119;43.398;3.676;2023-03-13T10:05:35;29.80;;;6.90;;
78774;SDS011;68119;43.398;3.676;2023-03-13T10:11:22;21.48;;;6.90;;
78774;SDS011;68119;43.398;3.676;2023-03-13T10:13:30;22.30;;;6.13;;
78774;SDS011;68119;43.398;3.676;2023-03-13T10:16:06;21.95;;;6.00;;
78774;SDS011;68119;43.398;3.676;2023-03-13T10:18:34;25.83;;;6.70;;
78774;SDS011;68119;43.398;3.676;2023-03-13T10:21:04;19.25;;;6.03;;
78774;SDS011;68119;43.398;3.676;2023-03-13T10:23:38;24.88;;;6.32;;
78774;SDS011;68119;43.398;3.676;2023-03-13T10:26:08;25.98;;;6.82;;
78774;SDS011;68119;43.398;3.676;2023-03-13T10:28:38;21.88;;;6.53;;
78774;SDS011;68119;43.398;3.676;2023-03-13T10:31:06;25.85;;;6.90;;
78774;SDS011;68119;43.398;3.676;2023-03-13T10:33:34;18.50;;;6.65;;
78774;SDS011;68119;43.398;3.676;2023-03-13T10:36:06;23.20;;;6.43;;
78774;SDS011;68119;43.398;3.676;2023-03-13T10:43:48;23.40;;;6.05;;
78774;SDS011;68119;43.398;3.676;2023-03-13T10:46:22;24.00;;;5.65;;
78774;SDS011;68119;43.398;3.676;2023-03-13T10:48:52;20.45;;;6.60;;
78774;SDS011;68119;43.398;3.676;2023-03-13T10:51:24;27.33;;;6.70;;
78774;SDS011;68119;43.398;3.676;2023-03-13T10:53:57;27.25;;;6.28;;
78774;SDS011;68119;43.398;3.676;2023-03-13T10:56:29;21.15;;;6.18;;
78774;SDS011;68119;43.398;3.676;2023-03-13T10:58:58;20.40;;;6.45;;
78774;SDS011;68119;43.398;3.676;2023-03-13T11:01:28;25.90;;;6.20;;
78774;SDS011;68119;43.398;3.676;2023-03-13T11:03:56;22.45;;;6.13;;
78774;SDS011;68119;43.398;3.676;2023-03-13T11:06:29;23.23;;;5.93;;
78774;SDS011;68119;43.398;3.676;2023-03-13T11:09:17;26.33;;;5.90;;
78774;SDS011;68119;43.398;3.676;2023-03-13T11:11:52;25.58;;;6.40;;
78774;SDS011;68119;43.398;3.676;2023-03-13T11:14:22;25.40;;;6.47;;
78774;SDS011;68119;43.398;3.676;2023-03-13T11:19:38;26.88;;;6.07;;
78774;SDS011;68119;43.398;3.676;2023-03-13T11:22:14;29.85;;;6.40;;
78774;SDS011;68119;43.398;3.676;2023-03-13T11:27:18;27.00;;;6.07;;
78774;SDS011;68119;43.398;3.676;2023-03-13T11:32:34;21.85;;;5.78;;
78774;SDS011;68119;43.398;3.676;2023-03-13T11:35:05;19.50;;;5.57;;
78774;SDS011;68119;43.398;3.676;2023-03-13T11:37:32;20.77;;;5.20;;
78774;SDS011;68119;43.398;3.676;2023-03-13T11:50:11;23.08;;;6.32;;
78774;SDS011;68119;43.398;3.676;2023-03-13T12:00:30;23.95;;;5.88;;
78774;SDS011;68119;43.398;3.676;2023-03-13T12:05:51;30.10;;;6.15;;
78774;SDS011;68119;43.398;3.676;2023-03-13T12:08:27;22.85;;;6.50;;
78774;SDS011;68119;43.398;3.676;2023-03-13T12:13:22;25.95;;;6.65;;
78774;SDS011;68119;43.398;3.676;2023-03-13T12:15:53;24.83;;;6.22;;
78774;SDS011;68119;43.398;3.676;2023-03-13T12:23:23;25.75;;;6.53;;
78774;SDS011;68119;43.398;3.676;2023-03-13T12:26:13;23.35;;;5.68;;
78774;SDS011;68119;43.398;3.676;2023-03-13T12:29:00;21.23;;;5.38;;
78774;SDS011;68119;43.398;3.676;2023-03-13T12:31:32;25.58;;;6.53;;
78774;SDS011;68119;43.398;3.676;2023-03-13T12:41:42;20.25;;;5.93;;
78774;SDS011;68119;43.398;3.676;2023-03-13T12:44:10;21.90;;;6.60;;
78774;SDS011;68119;43.398;3.676;2023-03-13T12:57:09;20.85;;;5.80;;
78774;SDS011;68119;43.398;3.676;2023-03-13T12:59:46;21.65;;;5.88;;
78774;SDS011;68119;43.398;3.676;2023-03-13T13:02:22;24.42;;;5.68;;
78774;SDS011;68119;43.398;3.676;2023-03-13T13:04:49;25.73;;;6.70;;
78774;SDS011;68119;43.398;3.676;2023-03-13T13:12:31;17.58;;;5.75;;
78774;SDS011;68119;43.398;3.676;2023-03-13T13:15:10;23.85;;;6.25;;
78774;SDS011;68119;43.398;3.676;2023-03-13T13:18:22;19.67;;;6.07;;
78774;SDS011;68119;43.398;3.676;2023-03-13T13:23:20;20.70;;;6.82;;
78774;SDS011;68119;43.398;3.676;2023-03-13T13:25:46;20.50;;;6.60;;
78774;SDS011;68119;43.398;3.676;2023-03-13T13:30:53;15.65;;;5.80;;
78774;SDS011;68119;43.398;3.676;2023-03-13T13:36:53;19.35;;;5.93;;
78774;SDS011;68119;43.398;3.676;2023-03-13T13:38:48;24.50;;;6.72;;
78774;SDS011;68119;43.398;3.676;2023-03-13T13:43:44;24.15;;;6.43;;
78774;SDS011;68119;43.398;3.676;2023-03-13T13:48:45;20.67;;;6.53;;
78774;SDS011;68119;43.398;3.676;2023-03-13T14:01:39;29.67;;;7.25;;
78774;SDS011;68119;43.398;3.676;2023-03-13T14:04:14;30.10;;;7.72;;
78774;SDS011;68119;43.398;3.676;2023-03-13T14:06:46;23.40;;;7.28;;
78774;SDS011;68119;43.398;3.676;2023-03-13T14:11:48;29.00;;;8.40;;
78774;SDS011;68119;43.398;3.676;2023-03-13T14:16:50;24.98;;;7.68;;
78774;SDS011;68119;43.398;3.676;2023-03-13T14:19:29;22.10;;;7.63;;
78774;SDS011;68119;43.398;3.676;2023-03-13T14:22:03;22.48;;;6.90;;
78774;SDS011;68119;43.398;3.676;2023-03-13T14:26:58;25.92;;;6.85;;
78774;SDS011;68119;43.398;3.676;2023-03-13T14:29:24;22.42;;;7.32;;
78774;SDS011;68119;43.398;3.676;2023-03-13T14:31:52;23.30;;;7.07;;
78774;SDS011;68119;43.398;3.676;2023-03-13T14:34:18;29.55;;;7.10;;
78774;SDS011;68119;43.398;3.676;2023-03-13T14:36:51;23.52;;;6.97;;
78774;SDS011;68119;43.398;3.676;2023-03-13T14:39:19;23.58;;;7.55;;
78774;SDS011;68119;43.398;3.676;2023-03-13T14:41:48;23.48;;;6.70;;
78774;SDS011;68119;43.398;3.676;2023-03-13T14:44:24;21.25;;;6.72;;
78774;SDS011;68119;43.398;3.676;2023-03-13T14:46:57;17.92;;;6.60;;
78774;SDS011;68119;43.398;3.676;2023-03-13T14:49:25;25.70;;;7.80;;
78774;SDS011;68119;43.398;3.676;2023-03-13T14:51:57;22.58;;;7.57;;
78774;SDS011;68119;43.398;3.676;2023-03-13T14:54:34;24.48;;;7.35;;
78774;SDS011;68119;43.398;3.676;2023-03-13T14:57:22;27.38;;;7.72;;
78774;SDS011;68119;43.398;3.676;2023-03-13T14:59:48;30.58;;;8.32;;
78774;SDS011;68119;43.398;3.676;2023-03-13T15:02:22;32.83;;;8.75;;
78774;SDS011;68119;43.398;3.676;2023-03-13T15:08:09;24.02;;;7.65;;
78774;SDS011;68119;43.398;3.676;2023-03-13T15:10:20;24.77;;;7.80;;
78774;SDS011;68119;43.398;3.676;2023-03-13T15:12:46;26.63;;;7.68;;
78774;SDS011;68119;43.398;3.676;2023-03-13T15:15:13;32.10;;;9.30;;
78774;SDS011;68119;43.398;3.676;2023-03-13T15:17:39;37.08;;;13.60;;
78774;SDS011;68119;43.398;3.676;2023-03-13T15:20:05;32.25;;;9.38;;
78774;SDS011;68119;43.398;3.676;2023-03-13T15:22:33;25.88;;;7.80;;
78774;SDS011;68119;43.398;3.676;2023-03-13T15:24:59;28.02;;;7.90;;
78774;SDS011;68119;43.398;3.676;2023-03-13T15:27:29;28.80;;;7.88;;
78774;SDS011;68119;43.398;3.676;2023-03-13T15:29:58;30.20;;;8.30;;
78774;SDS011;68119;43.398;3.676;2023-03-13T15:32:25;29.23;;;7.70;;
78774;SDS011;68119;43.398;3.676;2023-03-13T15:34:52;37.22;;;9.45;;
78774;SDS011;68119;43.398;3.676;2023-03-13T15:37:22;31.42;;;8.32;;
78774;SDS011;68119;43.398;3.676;2023-03-13T15:39:48;33.00;;;8.93;;
78774;SDS011;68119;43.398;3.676;2023-03-13T15:42:14;34.85;;;9.85;;
78774;SDS011;68119;43.398;3.676;2023-03-13T15:44:40;46.50;;;10.50;;
78774;SDS011;68119;43.398;3.676;2023-03-13T15:47:08;36.92;;;10.45;;
78774;SDS011;68119;43.398;3.676;2023-03-13T15:49:35;39.97;;;10.48;;
78774;SDS011;68119;43.398;3.676;2023-03-13T15:52:04;34.95;;;10.13;;
78774;SDS011;68119;43.398;3.676;2023-03-13T15:54:37;34.20;;;10.10;;
78774;SDS011;68119;43.398;3.676;2023-03-13T15:57:03;38.28;;;9.70;;
78774;SDS011;68119;43.398;3.676;2023-03-13T15:59:29;43.05;;;10.35;;
78774;SDS011;68119;43.398;3.676;2023-03-13T16:01:55;40.75;;;10.95;;
78774;SDS011;68119;43.398;3.676;2023-03-13T16:04:21;37.65;;;10.98;;
78774;SDS011;68119;43.398;3.676;2023-03-13T16:06:47;44.05;;;11.20;;
78774;SDS011;68119;43.398;3.676;2023-03-13T16:09:19;35.67;;;10.27;;
78774;SDS011;68119;43.398;3.676;2023-03-13T16:11:45;38.03;;;10.43;;
78774;SDS011;68119;43.398;3.676;2023-03-13T16:14:17;42.05;;;10.85;;
78774;SDS011;68119;43.398;3.676;2023-03-13T16:16:46;43.00;;;11.35;;
78774;SDS011;68119;43.398;3.676;2023-03-13T16:19:19;41.15;;;11.00;;
78774;SDS011;68119;43.398;3.676;2023-03-13T16:21:47;37.45;;;9.90;;
78774;SDS011;68119;43.398;3.676;2023-03-13T16:24:14;42.75;;;11.40;;
78774;SDS011;68119;43.398;3.676;2023-03-13T16:26:41;36.20;;;11.50;;
78774;SDS011;68119;43.398;3.676;2023-03-13T16:29:14;39.70;;;11.88;;
78774;SDS011;68119;43.398;3.676;2023-03-13T16:31:41;35.92;;;10.80;;
78774;SDS011;68119;43.398;3.676;2023-03-13T16:34:07;49.85;;;11.38;;
78774;SDS011;68119;43.398;3.676;2023-03-13T16:36:36;42.15;;;11.05;;
78774;SDS011;68119;43.398;3.676;2023-03-13T16:39:06;41.50;;;11.07;;
78774;SDS011;68119;43.398;3.676;2023-03-13T16:41:35;42.20;;;11.52;;
78774;SDS011;68119;43.398;3.676;2023-03-13T16:44:04;39.13;;;11.98;;
78774;SDS011;68119;43.398;3.676;2023-03-13T16:46:34;41.40;;;11.70;;
78774;SDS011;68119;43.398;3.676;2023-03-13T16:49:04;48.65;;;13.32;;
78774;SDS011;68119;43.398;3.676;2023-03-13T16:51:33;43.60;;;12.52;;
78774;SDS011;68119;43.398;3.676;2023-03-13T16:53:59;47.38;;;13.27;;
78774;SDS011;68119;43.398;3.676;2023-03-13T16:56:32;44.72;;;13.07;;
78774;SDS011;68119;43.398;3.676;2023-03-13T16:58:59;43.45;;;12.68;;